Schedule Details

Flight Number: CPX315
Departure: Kansas City International Airport (KMCI) at N/A
Arrival: Los Angeles International Airport (KLAX) at N/A
Route: WLDCT5 SLN KD45W ALS TBC JASSE Q90 DNERO ANJLL4


Current Weather Information
KMCI 180653Z 30008KT 8SM CLR M09/M12 A3021 RMK AO2 SLP243 T10891117
KLAX 180653Z 33012G19KT 10SM FEW040 SCT110 10/M01 A3002 RMK AO2 SLP164 T01001011

Route Map